createdAt,value
2019-03-27T00:02:21.134Z,76.12
2019-03-27T00:04:49.807Z,76.44
2019-03-27T00:07:18.415Z,76.10
2019-03-27T00:09:49.715Z,75.68
2019-03-27T00:12:18.355Z,75.95
2019-03-27T00:14:46.951Z,76.98
2019-03-27T00:17:15.642Z,76.68
2019-03-27T00:19:44.206Z,76.96
2019-03-27T00:22:12.753Z,76.13
2019-03-27T00:24:41.337Z,75.78
2019-03-27T00:27:09.878Z,75.51
2019-03-27T00:29:38.504Z,76.88
2019-03-27T00:32:07.135Z,75.72
2019-03-27T00:34:35.672Z,75.20
2019-03-27T00:37:04.220Z,74.73
2019-03-27T00:39:32.749Z,76.20
2019-03-27T00:42:01.455Z,75.00
2019-03-27T00:44:31.061Z,75.35
2019-03-27T00:47:02.719Z,75.60
2019-03-27T00:49:33.018Z,74.83
2019-03-27T00:52:01.622Z,74.57
2019-03-27T00:54:30.150Z,74.35
2019-03-27T00:56:58.721Z,74.07
2019-03-27T00:59:27.251Z,74.37
2019-03-27T01:01:55.846Z,74.56
2019-03-27T01:04:24.451Z,74.21
2019-03-27T01:06:53.086Z,75.06
2019-03-27T01:09:21.826Z,74.61
2019-03-27T01:11:50.400Z,76.16
2019-03-27T01:14:19.031Z,75.22
2019-03-27T01:16:47.654Z,74.78
2019-03-27T01:19:16.178Z,74.52
2019-03-27T01:21:44.785Z,74.97
2019-03-27T01:24:13.468Z,74.41
2019-03-27T01:26:42.030Z,74.46
2019-03-27T01:29:10.493Z,74.11
2019-03-27T01:31:41.322Z,74.26
2019-03-27T01:34:09.860Z,74.62
2019-03-27T01:36:38.509Z,74.41
2019-03-27T01:39:07.700Z,74.78
2019-03-27T01:41:36.340Z,75.07
2019-03-27T01:44:04.970Z,74.65
2019-03-27T01:46:33.495Z,74.11
2019-03-27T01:49:01.991Z,73.81
2019-03-27T01:51:30.596Z,73.68
2019-03-27T01:53:59.171Z,73.75
2019-03-27T01:56:27.875Z,74.50
2019-03-27T01:58:56.512Z,73.15
2019-03-27T02:01:25.043Z,73.28
2019-03-27T02:03:53.584Z,73.22
2019-03-27T02:06:22.041Z,72.57
2019-03-27T02:08:50.511Z,73.29
2019-03-27T02:11:19.113Z,72.84
2019-03-27T02:13:49.179Z,73.64
2019-03-27T02:16:17.707Z,73.27
2019-03-27T02:18:46.333Z,73.62
2019-03-27T02:21:16.030Z,73.52
2019-03-27T02:23:44.563Z,73.76
2019-03-27T02:26:13.218Z,73.73
2019-03-27T02:28:41.896Z,73.84
2019-03-27T02:31:14.880Z,74.22
2019-03-27T02:33:40.679Z,74.12
2019-03-27T02:36:09.296Z,74.99
2019-03-27T02:38:37.902Z,75.23
2019-03-27T02:41:06.438Z,75.07
2019-03-27T02:43:34.972Z,75.74
2019-03-27T02:46:03.897Z,75.43
2019-03-27T02:48:32.459Z,74.70
2019-03-27T02:51:00.963Z,73.89
2019-03-27T02:53:31.523Z,74.13
2019-03-27T02:55:59.887Z,73.98
2019-03-27T02:58:28.422Z,74.32
2019-03-27T03:00:56.954Z,73.87
2019-03-27T03:03:25.566Z,74.72
2019-03-27T03:05:54.123Z,74.78
2019-03-27T03:08:22.794Z,73.64
2019-03-27T03:10:51.317Z,73.97
2019-03-27T03:13:19.849Z,74.13
2019-03-27T03:15:48.454Z,74.14
2019-03-27T03:18:16.990Z,74.03
2019-03-27T03:20:45.604Z,74.80
2019-03-27T03:23:14.066Z,73.85
2019-03-27T03:25:42.711Z,73.77
2019-03-27T03:28:11.248Z,74.52
2019-03-27T03:30:39.935Z,74.25
2019-03-27T03:33:08.539Z,74.98
2019-03-27T03:35:37.105Z,74.53
2019-03-27T03:38:05.709Z,75.09
2019-03-27T03:40:34.276Z,74.74
2019-03-27T03:43:02.907Z,74.53
2019-03-27T03:45:31.471Z,74.78
2019-03-27T03:48:00.044Z,74.92
2019-03-27T03:50:39.905Z,74.71
2019-03-27T03:53:16.229Z,74.61
2019-03-27T03:55:44.949Z,74.90
2019-03-27T03:58:15.048Z,75.41
2019-03-27T04:00:44.073Z,76.12
2019-03-27T04:03:12.706Z,75.51
2019-03-27T04:05:41.352Z,75.76
2019-03-27T04:08:09.972Z,75.25
2019-03-27T04:10:38.610Z,76.14
2019-03-27T04:13:07.404Z,76.86
2019-03-27T04:15:36.031Z,76.78
2019-03-27T04:18:04.604Z,75.85
2019-03-27T04:20:33.271Z,76.14
2019-03-27T04:23:01.875Z,76.31
2019-03-27T04:25:53.859Z,76.11
2019-03-27T04:28:00.946Z,76.06
2019-03-27T04:30:30.754Z,75.58
2019-03-27T04:33:01.385Z,76.15
2019-03-27T04:35:31.583Z,76.22
2019-03-27T04:38:00.034Z,75.99
2019-03-27T04:40:28.624Z,74.84
2019-03-27T04:42:59.284Z,75.59
2019-03-27T04:45:27.958Z,75.53
2019-03-27T04:47:56.596Z,75.76
2019-03-27T04:50:30.106Z,75.12
2019-03-27T04:52:55.503Z,74.14
2019-03-27T04:55:23.971Z,74.55
2019-03-27T04:57:52.502Z,73.15
2019-03-27T05:00:21.258Z,73.19
2019-03-27T05:02:49.719Z,73.89
2019-03-27T05:05:18.327Z,74.10
2019-03-27T05:07:46.860Z,73.30
2019-03-27T05:10:15.506Z,73.96
2019-03-27T05:12:44.041Z,73.27
2019-03-27T05:15:12.769Z,73.47
2019-03-27T05:17:46.147Z,73.55
2019-03-27T05:20:11.773Z,73.19
2019-03-27T05:22:40.976Z,73.49
2019-03-27T05:25:09.553Z,73.15
2019-03-27T05:27:38.033Z,72.99
2019-03-27T05:30:08.660Z,72.87
2019-03-27T05:32:37.303Z,72.24
2019-03-27T05:35:07.314Z,72.55
2019-03-27T05:37:35.924Z,72.69
2019-03-27T05:40:06.766Z,71.42
2019-03-27T05:42:35.318Z,71.84
2019-03-27T05:45:04.722Z,71.57
2019-03-27T05:47:33.404Z,71.01
2019-03-27T05:50:02.045Z,70.91
2019-03-27T05:52:30.565Z,71.68
2019-03-27T05:54:59.557Z,71.21
2019-03-27T05:57:28.168Z,70.50
2019-03-27T05:59:56.715Z,69.22
2019-03-27T06:02:25.414Z,69.52
2019-03-27T06:04:53.938Z,69.09
2019-03-27T06:07:24.510Z,68.71
2019-03-27T06:09:52.997Z,68.62
2019-03-27T06:12:21.633Z,65.72
2019-03-27T06:14:54.575Z,65.85
2019-03-27T06:17:23.183Z,66.68
2019-03-27T06:19:51.732Z,65.17
2019-03-27T06:22:20.447Z,66.39
2019-03-27T06:24:49.091Z,65.67
2019-03-27T06:27:17.641Z,66.96
2019-03-27T06:29:46.133Z,67.27
2019-03-27T06:32:14.776Z,66.13
2019-03-27T06:34:43.459Z,66.40
2019-03-27T06:37:12.078Z,66.74
2019-03-27T06:39:40.669Z,67.31
2019-03-27T06:42:09.223Z,67.27
2019-03-27T06:44:37.828Z,68.38
2019-03-27T06:47:06.437Z,67.87
2019-03-27T06:49:35.032Z,68.11
2019-03-27T06:52:03.651Z,68.84
2019-03-27T06:54:32.230Z,68.89
2019-03-27T06:57:01.365Z,68.85
2019-03-27T06:59:30.027Z,67.74
2019-03-27T07:01:58.697Z,67.14
2019-03-27T07:04:27.222Z,67.35
2019-03-27T07:06:55.845Z,66.92
2019-03-27T07:09:24.311Z,66.17
2019-03-27T07:11:52.990Z,65.70
2019-03-27T07:14:21.958Z,63.54
2019-03-27T07:16:50.488Z,64.51
2019-03-27T07:19:19.047Z,65.14
2019-03-27T07:21:47.645Z,65.66
2019-03-27T07:24:16.253Z,66.10
2019-03-27T07:26:44.791Z,65.51
2019-03-27T07:29:13.385Z,65.74
2019-03-27T07:31:41.994Z,65.96
2019-03-27T07:34:10.601Z,65.31
2019-03-27T07:36:39.139Z,63.65
2019-03-27T07:39:11.219Z,64.71
2019-03-27T07:41:38.034Z,63.44
2019-03-27T07:44:06.739Z,63.08
2019-03-27T07:46:35.365Z,62.10
2019-03-27T07:49:03.998Z,60.47
2019-03-27T07:51:32.592Z,58.67
2019-03-27T07:54:01.218Z,58.22
2019-03-27T07:56:29.753Z,60.21
2019-03-27T07:58:59.861Z,60.74
2019-03-27T08:01:28.776Z,58.43
2019-03-27T08:03:57.374Z,60.72
2019-03-27T08:06:28.268Z,58.17
2019-03-27T08:08:56.795Z,60.50
2019-03-27T08:11:25.543Z,57.29
2019-03-27T08:13:54.505Z,59.60
2019-03-27T08:16:23.042Z,58.02
2019-03-27T08:18:51.639Z,57.76
2019-03-27T08:21:20.159Z,58.20
2019-03-27T08:23:48.700Z,56.87
2019-03-27T08:26:17.233Z,57.92
2019-03-27T08:28:45.835Z,57.59
2019-03-27T08:31:19.547Z,53.78
2019-03-27T08:33:48.073Z,54.69
2019-03-27T08:36:16.686Z,56.25
2019-03-27T08:38:45.288Z,54.73
2019-03-27T08:41:14.157Z,56.15
2019-03-27T08:43:44.740Z,56.41
2019-03-27T08:46:12.873Z,55.73
2019-03-27T08:48:41.412Z,57.07
2019-03-27T08:51:10.075Z,54.66
2019-03-27T08:53:38.713Z,55.32
2019-03-27T08:56:07.320Z,49.27
2019-03-27T08:58:35.914Z,53.65
2019-03-27T09:01:05.535Z,50.98
2019-03-27T09:03:34.180Z,50.08
2019-03-27T09:06:02.781Z,49.50
2019-03-27T09:08:31.399Z,50.33
2019-03-27T09:11:00.010Z,51.96
2019-03-27T09:13:28.619Z,52.40
2019-03-27T09:15:57.149Z,48.09
2019-03-27T09:18:25.689Z,49.40
2019-03-27T09:20:54.287Z,48.49
2019-03-27T09:23:22.880Z,50.94
2019-03-27T09:25:51.414Z,50.38
2019-03-27T09:28:20.085Z,46.54
2019-03-27T09:30:51.063Z,49.35
2019-03-27T09:33:19.702Z,50.90
2019-03-27T09:35:48.307Z,50.43
2019-03-27T09:38:16.950Z,48.71
2019-03-27T09:40:45.534Z,46.98
2019-03-27T09:43:14.129Z,47.46
2019-03-27T09:45:42.728Z,46.40
2019-03-27T09:48:11.358Z,44.00
2019-03-27T09:50:41.326Z,45.37
2019-03-27T09:53:11.335Z,48.58
2019-03-27T09:55:39.933Z,48.48
2019-03-27T09:58:08.538Z,48.32
2019-03-27T10:00:49.115Z,46.21
2019-03-27T10:03:17.860Z,46.38
2019-03-27T10:05:46.385Z,48.31
2019-03-27T10:08:14.903Z,47.09
2019-03-27T10:10:43.517Z,47.79
2019-03-27T10:13:12.132Z,48.87
2019-03-27T10:15:40.764Z,48.29
2019-03-27T10:18:09.440Z,48.84
2019-03-27T10:20:38.048Z,46.63
2019-03-27T10:23:07.524Z,45.06
2019-03-27T10:25:36.047Z,45.47
2019-03-27T10:28:04.682Z,46.45
2019-03-27T10:30:33.282Z,45.11
2019-03-27T10:33:01.881Z,45.46
2019-03-27T10:35:30.356Z,44.97
2019-03-27T10:37:58.996Z,45.03
2019-03-27T10:40:27.535Z,46.56
2019-03-27T10:42:56.067Z,46.17
2019-03-27T10:45:24.594Z,42.37
2019-03-27T10:47:53.116Z,43.72
2019-03-27T10:50:21.745Z,43.60
2019-03-27T10:52:50.275Z,44.33
2019-03-27T10:55:18.841Z,44.67
2019-03-27T10:57:47.452Z,46.21
2019-03-27T11:00:16.785Z,45.57
2019-03-27T11:02:45.316Z,44.01
2019-03-27T11:05:14.021Z,43.71
2019-03-27T11:07:42.619Z,45.15
2019-03-27T11:10:12.422Z,43.25
2019-03-27T11:12:41.023Z,42.22
2019-03-27T11:15:10.418Z,42.90
2019-03-27T11:17:39.026Z,42.75
2019-03-27T11:20:08.448Z,42.93
2019-03-27T11:22:37.015Z,43.46
2019-03-27T11:25:12.368Z,44.39
2019-03-27T11:27:42.045Z,44.31
2019-03-27T11:30:11.499Z,44.95
2019-03-27T11:32:40.074Z,44.34
2019-03-27T11:35:09.019Z,42.94
2019-03-27T11:37:37.547Z,42.03
2019-03-27T11:40:06.655Z,43.12
2019-03-27T11:42:35.184Z,42.14
2019-03-27T11:45:05.748Z,43.01
2019-03-27T11:47:35.539Z,42.90
2019-03-27T11:50:07.956Z,41.46
2019-03-27T11:52:36.581Z,42.29
2019-03-27T11:55:06.161Z,42.73
2019-03-27T11:57:34.760Z,41.73
2019-03-27T12:00:04.469Z,41.12
2019-03-27T12:02:33.078Z,41.56
2019-03-27T12:05:03.882Z,40.88
2019-03-27T12:07:32.370Z,41.66
2019-03-27T12:10:00.892Z,42.21
2019-03-27T12:12:29.379Z,41.80
2019-03-27T12:14:57.910Z,41.66
2019-03-27T12:17:28.141Z,41.93
2019-03-27T12:19:56.667Z,42.35
2019-03-27T12:22:25.270Z,41.50
2019-03-27T12:24:53.777Z,42.45
2019-03-27T12:27:22.246Z,41.08
2019-03-27T12:29:54.370Z,39.36
2019-03-27T12:32:25.003Z,40.52
2019-03-27T12:34:54.646Z,41.89
2019-03-27T12:37:23.181Z,41.22
2019-03-27T12:39:51.763Z,43.38
2019-03-27T12:42:20.293Z,41.54
2019-03-27T12:44:48.847Z,40.72
2019-03-27T12:47:17.377Z,40.79
2019-03-27T12:49:45.942Z,41.28
2019-03-27T12:52:14.540Z,39.75
2019-03-27T12:54:44.828Z,41.74
2019-03-27T12:57:13.380Z,41.54
2019-03-27T12:59:41.981Z,41.27
2019-03-27T13:02:10.586Z,41.41
2019-03-27T13:04:39.238Z,42.66
2019-03-27T13:07:07.771Z,43.42
2019-03-27T13:09:36.228Z,43.12
2019-03-27T13:12:10.030Z,41.87
2019-03-27T13:14:38.670Z,42.72
2019-03-27T13:17:07.233Z,40.63
2019-03-27T13:19:35.828Z,40.99
2019-03-27T13:22:04.440Z,41.67
2019-03-27T13:24:33.001Z,40.81
2019-03-27T13:27:01.615Z,43.13
2019-03-27T13:29:31.805Z,42.98
2019-03-27T13:32:07.626Z,42.03
2019-03-27T13:34:37.617Z,42.68
2019-03-27T13:37:06.242Z,40.08
2019-03-27T13:39:34.704Z,40.97
2019-03-27T13:42:03.235Z,41.88
2019-03-27T13:44:37.325Z,39.23
2019-03-27T13:47:02.356Z,40.17
2019-03-27T13:49:30.975Z,40.16
2019-03-27T13:51:59.648Z,41.36
2019-03-27T13:54:28.288Z,40.48
2019-03-27T13:56:56.816Z,40.26
2019-03-27T13:59:25.380Z,40.78
2019-03-27T14:01:53.983Z,41.43
2019-03-27T14:04:22.792Z,37.44
2019-03-27T14:06:57.264Z,40.80
2019-03-27T14:09:25.825Z,38.25
2019-03-27T14:11:54.365Z,39.21
2019-03-27T14:14:22.889Z,38.12
2019-03-27T14:16:51.423Z,38.16
2019-03-27T14:19:20.036Z,38.36
2019-03-27T14:21:54.633Z,38.52
2019-03-27T14:24:18.982Z,36.92
2019-03-27T14:26:47.627Z,38.42
2019-03-27T14:29:16.239Z,37.44
2019-03-27T14:31:44.848Z,37.91
2019-03-27T14:34:13.454Z,37.17
2019-03-27T14:36:43.924Z,37.21
2019-03-27T14:39:12.513Z,38.23
2019-03-27T14:41:41.120Z,37.90
2019-03-27T14:44:09.667Z,37.53
2019-03-27T14:46:42.197Z,36.79
2019-03-27T14:49:10.660Z,36.75
2019-03-27T14:51:39.252Z,36.92
2019-03-27T14:54:07.934Z,37.11
2019-03-27T14:56:36.400Z,36.86
2019-03-27T14:59:05.010Z,38.38
2019-03-27T15:01:35.584Z,36.84
2019-03-27T15:04:12.120Z,37.64
2019-03-27T15:06:40.683Z,37.24
2019-03-27T15:09:10.356Z,38.32
2019-03-27T15:11:38.870Z,37.00
2019-03-27T15:14:07.479Z,35.37
2019-03-27T15:16:36.153Z,36.10
2019-03-27T15:19:05.031Z,37.30
2019-03-27T15:21:33.659Z,36.13
2019-03-27T15:24:02.277Z,35.75
2019-03-27T15:26:30.865Z,36.19
2019-03-27T15:28:59.329Z,37.28
2019-03-27T15:31:27.896Z,37.89
2019-03-27T15:33:56.588Z,37.44
2019-03-27T15:36:25.061Z,37.93
2019-03-27T15:38:53.646Z,37.51
2019-03-27T15:41:22.283Z,37.51
2019-03-27T15:43:50.847Z,37.69
2019-03-27T15:46:19.416Z,36.89
2019-03-27T15:48:47.877Z,38.05
2019-03-27T15:51:17.993Z,37.75
2019-03-27T15:53:47.457Z,36.98
2019-03-27T15:56:16.232Z,37.15
2019-03-27T15:58:44.813Z,37.90
2019-03-27T16:01:13.416Z,36.90
2019-03-27T16:03:41.957Z,37.73
2019-03-27T16:06:10.493Z,37.78
2019-03-27T16:08:39.059Z,38.44
2019-03-27T16:11:07.831Z,38.78
2019-03-27T16:13:36.337Z,39.38
2019-03-27T16:16:04.920Z,39.38
2019-03-27T16:18:33.400Z,39.87
2019-03-27T16:21:02.021Z,40.06
2019-03-27T16:23:32.515Z,39.60
2019-03-27T16:26:01.039Z,39.21
2019-03-27T16:28:29.576Z,39.09
2019-03-27T16:30:58.254Z,39.67
2019-03-27T16:33:26.903Z,39.92
2019-03-27T16:35:55.559Z,39.29
2019-03-27T16:38:24.167Z,39.86
2019-03-27T16:40:52.943Z,39.96
2019-03-27T16:43:21.547Z,40.79
2019-03-27T16:45:50.539Z,40.74
2019-03-27T16:48:20.637Z,40.26
2019-03-27T16:50:49.314Z,40.55
2019-03-27T16:53:17.921Z,41.47
2019-03-27T16:55:47.042Z,41.52
2019-03-27T16:58:15.648Z,41.96
2019-03-27T17:00:44.306Z,42.79
2019-03-27T17:03:13.713Z,43.53
2019-03-27T17:05:53.371Z,43.88
2019-03-27T17:08:12.668Z,43.61
2019-03-27T17:10:41.416Z,44.20
2019-03-27T17:13:09.966Z,44.77
2019-03-27T17:15:38.608Z,45.38
2019-03-27T17:18:07.289Z,46.05
2019-03-27T17:20:35.822Z,46.46
2019-03-27T17:23:17.517Z,47.81
2019-03-27T17:25:34.860Z,48.90
2019-03-27T17:28:03.513Z,48.69
2019-03-27T17:30:32.230Z,49.34
2019-03-27T17:33:00.752Z,49.86
2019-03-27T17:35:29.375Z,49.91
2019-03-27T17:37:57.837Z,50.76
2019-03-27T17:40:26.488Z,51.27
2019-03-27T17:42:55.127Z,51.55
2019-03-27T17:45:23.777Z,52.15
2019-03-27T17:47:52.417Z,52.59
2019-03-27T17:50:21.055Z,52.98
2019-03-27T17:52:49.590Z,52.89
2019-03-27T17:55:18.135Z,53.48
2019-03-27T17:57:46.751Z,53.99
2019-03-27T18:00:19.719Z,54.90
2019-03-27T18:02:48.360Z,55.48
2019-03-27T18:05:16.982Z,55.55
2019-03-27T18:07:45.595Z,55.80
2019-03-27T18:10:14.777Z,56.06
2019-03-27T18:12:43.394Z,56.15
2019-03-27T18:15:12.435Z,56.62
2019-03-27T18:17:41.048Z,57.42
2019-03-27T18:20:09.818Z,57.56
2019-03-27T18:22:38.358Z,57.73
2019-03-27T18:25:07.190Z,58.30
2019-03-27T18:27:35.799Z,58.36
2019-03-27T18:30:07.085Z,58.41
2019-03-27T18:32:35.736Z,58.62
2019-03-27T18:35:05.853Z,58.94
2019-03-27T18:37:34.479Z,58.90
2019-03-27T18:40:03.918Z,59.81
2019-03-27T18:42:32.469Z,60.23
2019-03-27T18:45:01.060Z,60.36
2019-03-27T18:47:29.720Z,60.23
2019-03-27T18:49:58.291Z,60.89
2019-03-27T18:52:26.910Z,61.18
2019-03-27T18:54:59.463Z,61.06
2019-03-27T18:57:28.167Z,61.49
2019-03-27T18:59:56.770Z,61.42
2019-03-27T19:02:27.449Z,62.40
2019-03-27T19:04:56.111Z,62.23
2019-03-27T19:07:24.755Z,62.25
2019-03-27T19:09:53.589Z,62.31
2019-03-27T19:12:22.148Z,63.35
2019-03-27T19:14:50.709Z,63.30
2019-03-27T19:17:19.606Z,63.61
2019-03-27T19:19:48.375Z,63.55
2019-03-27T19:22:16.923Z,64.32
2019-03-27T19:24:45.533Z,63.94
2019-03-27T19:27:14.069Z,63.89
2019-03-27T19:29:45.036Z,64.75
2019-03-27T19:32:13.206Z,64.86
2019-03-27T19:34:42.045Z,65.04
2019-03-27T19:37:11.064Z,65.11
2019-03-27T19:39:39.738Z,65.38
2019-03-27T19:42:08.440Z,65.45
2019-03-27T19:44:37.123Z,65.60
2019-03-27T19:47:05.922Z,66.07
2019-03-27T19:49:34.568Z,66.08
2019-03-27T19:52:03.232Z,65.67
2019-03-27T19:54:31.772Z,66.38
2019-03-27T19:57:00.460Z,66.67
2019-03-27T19:59:29.045Z,66.32
2019-03-27T20:01:57.594Z,66.30
2019-03-27T20:04:26.195Z,66.45
2019-03-27T20:06:54.825Z,66.72
2019-03-27T20:09:23.319Z,67.28
2019-03-27T20:11:52.011Z,67.31
2019-03-27T20:14:20.619Z,67.59
2019-03-27T20:16:49.224Z,67.85
2019-03-27T20:19:17.814Z,67.49
2019-03-27T20:21:46.378Z,67.41
2019-03-27T20:24:15.221Z,67.50
2019-03-27T20:26:43.907Z,67.85
2019-03-27T20:29:12.479Z,68.14
2019-03-27T20:31:41.092Z,67.83
2019-03-27T20:34:09.723Z,68.17
2019-03-27T20:36:38.749Z,68.57
2019-03-27T20:39:09.004Z,68.15
2019-03-27T20:41:37.558Z,68.39
2019-03-27T20:44:06.176Z,68.58
2019-03-27T20:46:34.831Z,68.71
2019-03-27T20:49:03.431Z,68.65
2019-03-27T20:51:32.493Z,69.32
2019-03-27T20:54:01.513Z,69.44
2019-03-27T20:56:30.438Z,69.98
2019-03-27T20:59:01.317Z,70.07
2019-03-27T21:01:35.573Z,70.39
2019-03-27T21:03:59.691Z,70.02
2019-03-27T21:06:28.355Z,70.21
2019-03-27T21:08:57.123Z,70.26
2019-03-27T21:11:25.978Z,70.46
2019-03-27T21:13:54.548Z,69.72
2019-03-27T21:16:23.204Z,70.05
2019-03-27T21:18:51.858Z,70.04
2019-03-27T21:21:20.452Z,70.15
2019-03-27T21:23:49.093Z,70.35
2019-03-27T21:26:17.726Z,70.52
2019-03-27T21:28:46.309Z,70.50
2019-03-27T21:31:14.921Z,70.69
2019-03-27T21:33:43.501Z,70.63
2019-03-27T21:36:12.054Z,71.06
2019-03-27T21:38:40.679Z,71.27
2019-03-27T21:41:09.296Z,71.38
2019-03-27T21:43:37.881Z,71.19
2019-03-27T21:46:06.643Z,71.68
2019-03-27T21:48:35.251Z,71.52
2019-03-27T21:51:04.026Z,71.51
2019-03-27T21:53:34.782Z,71.64
2019-03-27T21:56:03.477Z,71.63
2019-03-27T21:58:32.061Z,71.75
2019-03-27T22:01:00.862Z,71.98
2019-03-27T22:03:29.509Z,72.00
2019-03-27T22:05:58.146Z,72.56
2019-03-27T22:08:26.793Z,72.35
2019-03-27T22:10:55.417Z,72.68
2019-03-27T22:13:24.022Z,72.76
2019-03-27T22:15:52.800Z,72.46
2019-03-27T22:18:21.522Z,73.11
2019-03-27T22:20:50.217Z,73.21
2019-03-27T22:23:18.808Z,72.81
2019-03-27T22:25:47.422Z,73.21
2019-03-27T22:28:16.221Z,72.95
2019-03-27T22:30:44.800Z,73.24
2019-03-27T22:33:13.422Z,73.24
2019-03-27T22:35:42.032Z,73.35
2019-03-27T22:38:10.578Z,73.43
2019-03-27T22:40:39.612Z,73.50
2019-03-27T22:43:08.252Z,73.37
2019-03-27T22:45:36.907Z,73.59
2019-03-27T22:48:05.518Z,73.46
2019-03-27T22:50:34.204Z,73.67
2019-03-27T22:53:03.165Z,73.84
2019-03-27T22:55:31.780Z,73.57
2019-03-27T22:58:00.476Z,73.97
2019-03-27T23:00:31.141Z,73.89
2019-03-27T23:03:00.565Z,73.60
2019-03-27T23:05:30.274Z,73.61
2019-03-27T23:08:16.453Z,73.79
2019-03-27T23:10:45.081Z,74.18
2019-03-27T23:13:13.768Z,73.84
2019-03-27T23:15:43.053Z,74.66
2019-03-27T23:18:11.697Z,74.48
2019-03-27T23:20:40.307Z,74.22
2019-03-27T23:23:08.950Z,74.11
2019-03-27T23:25:38.258Z,74.26
2019-03-27T23:28:06.903Z,73.96
2019-03-27T23:30:40.396Z,74.34
2019-03-27T23:33:09.052Z,74.38
2019-03-27T23:35:37.700Z,74.26
2019-03-27T23:38:06.430Z,74.27
2019-03-27T23:40:35.156Z,74.47
2019-03-27T23:43:03.765Z,74.38
2019-03-27T23:45:32.448Z,74.39
2019-03-27T23:48:01.128Z,74.43
2019-03-27T23:50:29.604Z,74.79
2019-03-27T23:52:58.306Z,74.67
2019-03-27T23:55:29.134Z,74.46
2019-03-27T23:57:57.749Z,74.75
